DAL1249 KMIA-KATL
Flight info
| Callsign | DAL1249 |
|---|---|
| Flight time | 1h 28m |
| Altitude | 32000 |
| Route | FLMGO2 STYMY Q77 MJAMS/N0454F330 Q77 SHRKS/N0448F320 LAIRI LARZZ JJEDI4 |
| Aircraft | B739/M-SDE2E3FGHIRWXY/LB1 |
Departure
| Time | 2026-05-04 23:12 |
|---|---|
| Airport | Miami International Airport (KMIA) |
Arrival
| Time | 2026-05-05 00:41 |
|---|---|
| Airport | Hartsfield Jackson Atlanta International Airport (KATL) |
| Time | Latitude | Longitude | Altitude | Speed | Heading |
|---|---|---|---|---|---|
| 2026-05-04 22:19 | 25.79220 | -80.27709 | 25 ft | 0 kts | 95° |
| 2026-05-04 22:55 | 25.79221 | -80.27723 | 22 ft | 4 kts | 99° |
| 2026-05-04 22:56 | 25.79229 | -80.27751 | 24 ft | 4 kts | 132° |
| 2026-05-04 22:56 | 25.79245 | -80.27760 | 25 ft | 1 kts | 186° |
| 2026-05-04 23:02 | 25.79244 | -80.27760 | 22 ft | 1 kts | 185° |
| 2026-05-04 23:02 | 25.79209 | -80.27764 | 24 ft | 8 kts | 186° |
| 2026-05-04 23:02 | 25.79141 | -80.27771 | 26 ft | 11 kts | 184° |
| 2026-05-04 23:02 | 25.79088 | -80.27782 | 27 ft | 12 kts | 199° |
| 2026-05-04 23:03 | 25.79011 | -80.27815 | 26 ft | 12 kts | 202° |
| 2026-05-04 23:03 | 25.78909 | -80.27848 | 24 ft | 11 kts | 190° |
| 2026-05-04 23:03 | 25.78873 | -80.27884 | 24 ft | 11 kts | 250° |
| 2026-05-04 23:03 | 25.78881 | -80.27965 | 26 ft | 11 kts | 298° |
| 2026-05-04 23:04 | 25.78917 | -80.28036 | 26 ft | 10 kts | 300° |
| 2026-05-04 23:04 | 25.78955 | -80.28109 | 24 ft | 12 kts | 300° |
| 2026-05-04 23:04 | 25.78996 | -80.28191 | 25 ft | 12 kts | 300° |
| 2026-05-04 23:04 | 25.79038 | -80.28272 | 26 ft | 12 kts | 299° |
| 2026-05-04 23:05 | 25.79083 | -80.28359 | 24 ft | 14 kts | 300° |
| 2026-05-04 23:05 | 25.79148 | -80.28457 | 19 ft | 17 kts | 307° |
| 2026-05-04 23:05 | 25.79209 | -80.28575 | 18 ft | 18 kts | 299° |
| 2026-05-04 23:05 | 25.79268 | -80.28692 | 17 ft | 17 kts | 299° |
| 2026-05-04 23:06 | 25.79326 | -80.28805 | 16 ft | 16 kts | 300° |
| 2026-05-04 23:06 | 25.79382 | -80.28913 | 18 ft | 16 kts | 300° |
| 2026-05-04 23:06 | 25.79435 | -80.29017 | 19 ft | 15 kts | 299° |
| 2026-05-04 23:06 | 25.79486 | -80.29117 | 20 ft | 15 kts | 300° |
| 2026-05-04 23:07 | 25.79535 | -80.29213 | 22 ft | 14 kts | 300° |
| 2026-05-04 23:07 | 25.79582 | -80.29305 | 22 ft | 13 kts | 299° |
| 2026-05-04 23:07 | 25.79627 | -80.29392 | 20 ft | 13 kts | 299° |
| 2026-05-04 23:07 | 25.79670 | -80.29478 | 19 ft | 13 kts | 300° |
| 2026-05-04 23:08 | 25.79713 | -80.29561 | 19 ft | 12 kts | 299° |
| 2026-05-04 23:08 | 25.79754 | -80.29642 | 18 ft | 12 kts | 299° |
| 2026-05-04 23:08 | 25.79795 | -80.29723 | 15 ft | 12 kts | 301° |
| 2026-05-04 23:08 | 25.79836 | -80.29801 | 15 ft | 12 kts | 299° |
| 2026-05-04 23:09 | 25.79876 | -80.29878 | 16 ft | 11 kts | 300° |
| 2026-05-04 23:09 | 25.79915 | -80.29956 | 16 ft | 12 kts | 299° |
| 2026-05-04 23:09 | 25.79959 | -80.30043 | 16 ft | 13 kts | 299° |
| 2026-05-04 23:09 | 25.80008 | -80.30119 | 18 ft | 11 kts | 333° |
| 2026-05-04 23:10 | 25.80060 | -80.30124 | 18 ft | 7 kts | 20° |
| 2026-05-04 23:10 | 25.80072 | -80.30099 | 17 ft | 0 kts | 83° |
| 2026-05-04 23:10 | 25.80072 | -80.30098 | 17 ft | 0 kts | 83° |
| 2026-05-04 23:11 | 25.80072 | -80.30096 | 17 ft | 1 kts | 83° |
| 2026-05-04 23:11 | 25.80079 | -80.29944 | 17 ft | 52 kts | 87° |
| 2026-05-04 23:11 | 25.80106 | -80.29293 | 22 ft | 114 kts | 87° |
| 2026-05-04 23:12 | 25.80155 | -80.28224 | 31 ft | 161 kts | 88° |
| 2026-05-04 23:12 | 25.80213 | -80.26949 | 569 ft | 164 kts | 84° |
| 2026-05-04 23:12 | 25.80302 | -80.25673 | 1256 ft | 165 kts | 84° |
| 2026-05-04 23:12 | 25.80370 | -80.24388 | 1830 ft | 171 kts | 85° |
| 2026-05-04 23:13 | 25.80429 | -80.22973 | 2056 ft | 195 kts | 85° |
| 2026-05-04 23:13 | 25.80487 | -80.21379 | 2225 ft | 218 kts | 85° |
| 2026-05-04 23:13 | 25.80545 | -80.19615 | 2401 ft | 240 kts | 86° |
| 2026-05-04 23:13 | 25.80907 | -80.17806 | 2829 ft | 251 kts | 61° |
| 2026-05-04 23:14 | 25.82128 | -80.16418 | 3545 ft | 252 kts | 29° |
| 2026-05-04 23:14 | 25.83815 | -80.15882 | 4101 ft | 262 kts | 6° |
| 2026-05-04 23:14 | 25.85646 | -80.15780 | 4849 ft | 264 kts | 1° |
| 2026-05-04 23:14 | 25.87507 | -80.15742 | 5470 ft | 270 kts | 0° |
| 2026-05-04 23:15 | 25.89410 | -80.15751 | 6061 ft | 276 kts | 352° |
| 2026-05-04 23:15 | 25.91279 | -80.16261 | 6679 ft | 278 kts | 337° |
| 2026-05-04 23:15 | 25.93106 | -80.16983 | 7329 ft | 281 kts | 337° |
| 2026-05-04 23:15 | 25.94981 | -80.17692 | 7955 ft | 286 kts | 340° |
| 2026-05-04 23:16 | 25.96887 | -80.18353 | 8684 ft | 287 kts | 339° |
| 2026-05-04 23:16 | 25.98772 | -80.19076 | 9329 ft | 287 kts | 328° |
| 2026-05-04 23:16 | 26.00354 | -80.20398 | 9967 ft | 284 kts | 314° |
| 2026-05-04 23:16 | 26.01835 | -80.21894 | 10389 ft | 296 kts | 314° |
| 2026-05-04 23:17 | 26.03408 | -80.23493 | 10541 ft | 316 kts | 314° |
| 2026-05-04 23:17 | 26.05098 | -80.25203 | 10667 ft | 335 kts | 314° |
| 2026-05-04 23:17 | 26.06857 | -80.26969 | 10957 ft | 348 kts | 314° |
| 2026-05-04 23:17 | 26.08673 | -80.28779 | 11498 ft | 352 kts | 315° |
| 2026-05-04 23:18 | 26.10498 | -80.30592 | 12136 ft | 353 kts | 314° |
| 2026-05-04 23:18 | 26.12335 | -80.32416 | 12721 ft | 355 kts | 314° |
| 2026-05-04 23:18 | 26.14179 | -80.34249 | 13303 ft | 357 kts | 314° |
| 2026-05-04 23:18 | 26.16038 | -80.36098 | 13897 ft | 359 kts | 314° |
| 2026-05-04 23:19 | 26.17901 | -80.37951 | 14448 ft | 360 kts | 314° |
| 2026-05-04 23:19 | 26.19769 | -80.39811 | 15010 ft | 361 kts | 314° |
| 2026-05-04 23:19 | 26.21650 | -80.41684 | 15569 ft | 363 kts | 314° |
| 2026-05-04 23:19 | 26.23669 | -80.43401 | 16077 ft | 372 kts | 327° |
| 2026-05-04 23:20 | 26.26027 | -80.44648 | 16615 ft | 377 kts | 330° |
| 2026-05-04 23:20 | 26.28422 | -80.45876 | 17108 ft | 380 kts | 330° |
| 2026-05-04 23:20 | 26.30821 | -80.47117 | 17635 ft | 381 kts | 330° |
| 2026-05-04 23:20 | 26.33233 | -80.48379 | 18172 ft | 383 kts | 329° |
| 2026-05-04 23:21 | 26.35647 | -80.49654 | 18605 ft | 385 kts | 329° |
| 2026-05-04 23:21 | 26.38071 | -80.50941 | 19042 ft | 387 kts | 329° |
| 2026-05-04 23:21 | 26.40513 | -80.52241 | 19462 ft | 389 kts | 329° |
| 2026-05-04 23:21 | 26.42968 | -80.53548 | 19881 ft | 392 kts | 329° |
| 2026-05-04 23:22 | 26.45428 | -80.54858 | 20331 ft | 393 kts | 329° |
| 2026-05-04 23:22 | 26.47896 | -80.56172 | 20762 ft | 395 kts | 329° |
| 2026-05-04 23:22 | 26.50473 | -80.57320 | 21136 ft | 402 kts | 336° |
| 2026-05-04 23:22 | 26.53168 | -80.58211 | 21530 ft | 406 kts | 339° |
| 2026-05-04 23:23 | 26.55915 | -80.59020 | 21933 ft | 409 kts | 339° |
| 2026-05-04 23:23 | 26.58681 | -80.59822 | 22300 ft | 412 kts | 339° |
| 2026-05-04 23:23 | 26.61458 | -80.60647 | 22673 ft | 414 kts | 339° |
| 2026-05-04 23:23 | 26.64243 | -80.61497 | 23062 ft | 415 kts | 338° |
| 2026-05-04 23:24 | 26.67033 | -80.62369 | 23443 ft | 417 kts | 338° |
| 2026-05-04 23:24 | 26.69832 | -80.63254 | 23761 ft | 419 kts | 338° |
| 2026-05-04 23:24 | 26.72641 | -80.64149 | 24082 ft | 421 kts | 338° |
| 2026-05-04 23:24 | 26.75430 | -80.65038 | 24397 ft | 422 kts | 338° |
| 2026-05-04 23:25 | 26.78296 | -80.65953 | 24721 ft | 424 kts | 338° |
| 2026-05-04 23:25 | 26.81097 | -80.66846 | 25041 ft | 425 kts | 338° |
| 2026-05-04 23:25 | 26.83949 | -80.67756 | 25356 ft | 427 kts | 338° |
| 2026-05-04 23:25 | 26.86816 | -80.68671 | 25704 ft | 429 kts | 338° |
| 2026-05-04 23:26 | 26.89689 | -80.69588 | 26024 ft | 431 kts | 338° |
| 2026-05-04 23:26 | 26.92572 | -80.70524 | 26346 ft | 431 kts | 336° |
| 2026-05-04 23:26 | 26.95424 | -80.71560 | 26664 ft | 431 kts | 335° |
| 2026-05-04 23:26 | 26.98270 | -80.72656 | 26971 ft | 433 kts | 334° |
| 2026-05-04 23:27 | 27.01122 | -80.73769 | 27278 ft | 435 kts | 334° |
| 2026-05-04 23:27 | 27.03984 | -80.74881 | 27580 ft | 436 kts | 334° |
| 2026-05-04 23:27 | 27.06812 | -80.75969 | 27883 ft | 438 kts | 334° |
| 2026-05-04 23:27 | 27.09707 | -80.77073 | 28180 ft | 440 kts | 334° |
| 2026-05-04 23:28 | 27.12609 | -80.78175 | 28461 ft | 442 kts | 334° |
| 2026-05-04 23:28 | 27.15531 | -80.79282 | 28761 ft | 443 kts | 334° |
| 2026-05-04 23:28 | 27.18452 | -80.80389 | 29150 ft | 443 kts | 334° |
| 2026-05-04 23:28 | 27.21371 | -80.81494 | 29618 ft | 441 kts | 334° |
| 2026-05-04 23:29 | 27.24263 | -80.82590 | 30119 ft | 438 kts | 334° |
| 2026-05-04 23:29 | 27.27148 | -80.83686 | 30500 ft | 437 kts | 334° |
| 2026-05-04 23:29 | 27.30024 | -80.84780 | 30813 ft | 437 kts | 334° |
| 2026-05-04 23:29 | 27.32915 | -80.85885 | 31116 ft | 437 kts | 333° |
| 2026-05-04 23:30 | 27.35773 | -80.87025 | 31459 ft | 436 kts | 333° |
| 2026-05-04 23:30 | 27.38622 | -80.88197 | 31805 ft | 435 kts | 333° |
| 2026-05-04 23:30 | 27.41454 | -80.89375 | 32129 ft | 434 kts | 332° |
| 2026-05-04 23:30 | 27.44288 | -80.90555 | 32442 ft | 435 kts | 332° |
| 2026-05-04 23:31 | 27.47119 | -80.91730 | 32833 ft | 432 kts | 333° |
| 2026-05-04 23:31 | 27.49944 | -80.92898 | 33015 ft | 433 kts | 333° |
| 2026-05-04 23:31 | 27.55568 | -80.95221 | 33029 ft | 431 kts | 333° |
| 2026-05-04 23:32 | 27.61176 | -80.97532 | 33047 ft | 427 kts | 333° |
| 2026-05-04 23:32 | 27.66742 | -80.99830 | 33044 ft | 425 kts | 333° |
| 2026-05-04 23:33 | 27.72283 | -81.02123 | 33029 ft | 424 kts | 333° |
| 2026-05-04 23:33 | 27.77826 | -81.04418 | 33074 ft | 424 kts | 333° |
| 2026-05-04 23:34 | 27.83381 | -81.06721 | 33045 ft | 426 kts | 333° |
| 2026-05-04 23:34 | 27.88950 | -81.09031 | 33043 ft | 427 kts | 333° |
| 2026-05-04 23:35 | 27.94533 | -81.11350 | 33051 ft | 428 kts | 333° |
| 2026-05-04 23:35 | 28.00143 | -81.13682 | 33047 ft | 430 kts | 333° |
| 2026-05-04 23:36 | 28.05690 | -81.16080 | 33054 ft | 428 kts | 330° |
| 2026-05-04 23:36 | 28.11093 | -81.18873 | 33063 ft | 428 kts | 329° |
| 2026-05-04 23:37 | 28.16489 | -81.21725 | 33067 ft | 428 kts | 329° |
| 2026-05-04 23:37 | 28.21902 | -81.24537 | 33062 ft | 428 kts | 329° |
| 2026-05-04 23:38 | 28.27314 | -81.27328 | 33064 ft | 427 kts | 329° |
| 2026-05-04 23:38 | 28.32718 | -81.30119 | 33068 ft | 425 kts | 329° |
| 2026-05-04 23:39 | 28.38102 | -81.32887 | 33060 ft | 424 kts | 330° |
| 2026-05-04 23:39 | 28.43470 | -81.35623 | 33069 ft | 422 kts | 330° |
| 2026-05-04 23:40 | 28.48813 | -81.38350 | 33060 ft | 420 kts | 329° |
| 2026-05-04 23:40 | 28.54130 | -81.41072 | 33065 ft | 418 kts | 329° |
| 2026-05-04 23:41 | 28.59435 | -81.43792 | 33064 ft | 417 kts | 329° |
| 2026-05-04 23:41 | 28.64725 | -81.46508 | 33061 ft | 417 kts | 329° |
| 2026-05-04 23:42 | 28.70010 | -81.49224 | 33104 ft | 417 kts | 329° |
| 2026-05-04 23:42 | 28.75314 | -81.51953 | 33068 ft | 419 kts | 329° |
| 2026-05-04 23:43 | 28.80626 | -81.54689 | 33060 ft | 419 kts | 329° |
| 2026-05-04 23:43 | 28.85947 | -81.57432 | 33065 ft | 420 kts | 329° |
| 2026-05-04 23:44 | 28.91306 | -81.60107 | 33049 ft | 424 kts | 335° |
| 2026-05-04 23:44 | 28.97181 | -81.61450 | 33063 ft | 437 kts | 348° |
| 2026-05-04 23:45 | 29.03263 | -81.61960 | 33064 ft | 439 kts | 348° |
| 2026-05-04 23:45 | 29.09356 | -81.62462 | 33062 ft | 439 kts | 348° |
| 2026-05-04 23:46 | 29.14369 | -81.62903 | 33065 ft | 439 kts | 348° |
| 2026-05-04 23:46 | 29.21436 | -81.63547 | 33064 ft | 438 kts | 348° |
| 2026-05-04 23:47 | 29.26526 | -81.64015 | 33070 ft | 438 kts | 348° |
| 2026-05-04 23:47 | 29.33588 | -81.64664 | 33079 ft | 438 kts | 348° |
| 2026-05-04 23:48 | 29.38680 | -81.65132 | 33076 ft | 438 kts | 348° |
| 2026-05-04 23:48 | 29.44708 | -81.65687 | 33078 ft | 436 kts | 348° |
| 2026-05-04 23:49 | 29.50723 | -81.66238 | 33071 ft | 431 kts | 347° |
| 2026-05-04 23:49 | 29.56685 | -81.66788 | 33128 ft | 429 kts | 347° |
| 2026-05-04 23:50 | 29.62640 | -81.67340 | 33085 ft | 429 kts | 347° |
| 2026-05-04 23:50 | 29.68585 | -81.67890 | 33078 ft | 428 kts | 347° |
| 2026-05-04 23:51 | 29.74527 | -81.68440 | 33081 ft | 428 kts | 347° |
| 2026-05-04 23:51 | 29.80472 | -81.68991 | 33076 ft | 429 kts | 347° |
| 2026-05-04 23:52 | 29.86426 | -81.69543 | 33118 ft | 430 kts | 347° |
| 2026-05-04 23:52 | 29.92405 | -81.70100 | 33084 ft | 431 kts | 347° |
| 2026-05-04 23:53 | 29.98388 | -81.70656 | 33071 ft | 432 kts | 347° |
| 2026-05-04 23:53 | 30.04385 | -81.71214 | 33082 ft | 433 kts | 347° |
| 2026-05-04 23:54 | 30.10398 | -81.71774 | 33073 ft | 433 kts | 347° |
| 2026-05-04 23:54 | 30.16407 | -81.72335 | 33105 ft | 434 kts | 346° |
| 2026-05-04 23:55 | 30.22432 | -81.72898 | 33081 ft | 434 kts | 346° |
| 2026-05-04 23:56 | 30.31466 | -81.73743 | 33092 ft | 433 kts | 346° |
| 2026-05-04 23:56 | 30.37470 | -81.74305 | 33135 ft | 432 kts | 346° |
| 2026-05-04 23:57 | 30.43459 | -81.74867 | 33073 ft | 431 kts | 346° |
| 2026-05-04 23:57 | 30.49437 | -81.75429 | 33074 ft | 431 kts | 346° |
| 2026-05-04 23:58 | 30.55381 | -81.75989 | 33073 ft | 430 kts | 346° |
| 2026-05-04 23:58 | 30.61290 | -81.76742 | 33070 ft | 421 kts | 338° |
| 2026-05-04 23:59 | 30.66651 | -81.79040 | 33093 ft | 405 kts | 326° |
| 2026-05-04 23:59 | 30.71693 | -81.81999 | 33126 ft | 407 kts | 325° |
| 2026-05-05 00:00 | 30.76757 | -81.84970 | 33116 ft | 409 kts | 326° |
| 2026-05-05 00:00 | 30.81817 | -81.87914 | 33118 ft | 410 kts | 326° |
| 2026-05-05 00:01 | 30.86930 | -81.90873 | 33083 ft | 411 kts | 326° |
| 2026-05-05 00:01 | 30.92051 | -81.93840 | 33082 ft | 411 kts | 326° |
| 2026-05-05 00:02 | 30.97173 | -81.96815 | 33094 ft | 412 kts | 326° |
| 2026-05-05 00:02 | 31.02295 | -81.99805 | 33104 ft | 413 kts | 326° |
| 2026-05-05 00:03 | 31.07430 | -82.02802 | 33074 ft | 413 kts | 326° |
| 2026-05-05 00:03 | 31.12586 | -82.05807 | 33080 ft | 417 kts | 326° |
| 2026-05-05 00:04 | 31.17824 | -82.08869 | 33066 ft | 423 kts | 326° |
| 2026-05-05 00:04 | 31.23089 | -82.11945 | 33064 ft | 423 kts | 326° |
| 2026-05-05 00:05 | 31.28343 | -82.15018 | 33113 ft | 422 kts | 326° |
| 2026-05-05 00:05 | 31.33610 | -82.18107 | 33068 ft | 423 kts | 327° |
| 2026-05-05 00:06 | 31.38878 | -82.21200 | 33053 ft | 424 kts | 327° |
| 2026-05-05 00:06 | 31.44118 | -82.24281 | 33054 ft | 424 kts | 327° |
| 2026-05-05 00:07 | 31.49393 | -82.27386 | 33056 ft | 424 kts | 327° |
| 2026-05-05 00:07 | 31.54657 | -82.30488 | 33050 ft | 424 kts | 327° |
| 2026-05-05 00:08 | 31.59927 | -82.33599 | 33064 ft | 425 kts | 327° |
| 2026-05-05 00:08 | 31.65205 | -82.36717 | 33057 ft | 425 kts | 327° |
| 2026-05-05 00:09 | 31.70497 | -82.39848 | 33050 ft | 426 kts | 327° |
| 2026-05-05 00:09 | 31.75779 | -82.42976 | 33041 ft | 425 kts | 327° |
| 2026-05-05 00:10 | 31.81066 | -82.46112 | 33047 ft | 424 kts | 327° |
| 2026-05-05 00:10 | 31.86324 | -82.49236 | 33068 ft | 424 kts | 327° |
| 2026-05-05 00:11 | 31.91595 | -82.52372 | 33062 ft | 425 kts | 327° |
| 2026-05-05 00:11 | 31.96781 | -82.55683 | 33048 ft | 421 kts | 320° |
| 2026-05-05 00:12 | 32.01205 | -82.60047 | 33057 ft | 418 kts | 314° |
| 2026-05-05 00:12 | 32.05579 | -82.64572 | 33054 ft | 419 kts | 314° |
| 2026-05-05 00:13 | 32.09989 | -82.69098 | 33054 ft | 421 kts | 315° |
| 2026-05-05 00:13 | 32.14412 | -82.73622 | 33077 ft | 422 kts | 315° |
| 2026-05-05 00:14 | 32.18855 | -82.78174 | 33063 ft | 424 kts | 315° |
| 2026-05-05 00:14 | 32.23310 | -82.82738 | 33053 ft | 423 kts | 315° |
| 2026-05-05 00:15 | 32.27671 | -82.87207 | 32568 ft | 408 kts | 315° |
| 2026-05-05 00:15 | 32.29798 | -82.89392 | 32063 ft | 403 kts | 315° |
| 2026-05-05 00:15 | 32.31900 | -82.91553 | 31588 ft | 398 kts | 315° |
| 2026-05-05 00:15 | 32.33982 | -82.93696 | 31097 ft | 395 kts | 315° |
| 2026-05-05 00:16 | 32.36047 | -82.95821 | 30581 ft | 392 kts | 315° |
| 2026-05-05 00:16 | 32.38094 | -82.97929 | 30082 ft | 390 kts | 315° |
| 2026-05-05 00:16 | 32.40141 | -83.00035 | 29432 ft | 389 kts | 315° |
| 2026-05-05 00:16 | 32.42182 | -83.02134 | 28817 ft | 388 kts | 315° |
| 2026-05-05 00:17 | 32.44213 | -83.04222 | 28272 ft | 386 kts | 315° |
| 2026-05-05 00:17 | 32.46234 | -83.06303 | 27740 ft | 383 kts | 315° |
| 2026-05-05 00:17 | 32.48236 | -83.08365 | 27243 ft | 380 kts | 315° |
| 2026-05-05 00:17 | 32.50227 | -83.10419 | 26634 ft | 380 kts | 315° |
| 2026-05-05 00:18 | 32.52215 | -83.12471 | 26145 ft | 377 kts | 315° |
| 2026-05-05 00:18 | 32.54190 | -83.14510 | 25656 ft | 375 kts | 315° |
| 2026-05-05 00:18 | 32.56153 | -83.16537 | 25190 ft | 373 kts | 315° |
| 2026-05-05 00:18 | 32.58102 | -83.18552 | 24722 ft | 371 kts | 315° |
| 2026-05-05 00:19 | 32.60014 | -83.20530 | 24191 ft | 370 kts | 315° |
| 2026-05-05 00:19 | 32.61954 | -83.22542 | 23670 ft | 370 kts | 315° |
| 2026-05-05 00:19 | 32.63891 | -83.24552 | 23104 ft | 369 kts | 315° |
| 2026-05-05 00:19 | 32.65817 | -83.26551 | 22616 ft | 366 kts | 315° |
| 2026-05-05 00:20 | 32.67724 | -83.28531 | 22148 ft | 363 kts | 315° |
| 2026-05-05 00:20 | 32.69616 | -83.30498 | 21690 ft | 360 kts | 315° |
| 2026-05-05 00:20 | 32.71492 | -83.32449 | 21252 ft | 357 kts | 315° |
| 2026-05-05 00:20 | 32.73352 | -83.34386 | 20804 ft | 355 kts | 315° |
| 2026-05-05 00:21 | 32.75201 | -83.36311 | 20362 ft | 353 kts | 315° |
| 2026-05-05 00:21 | 32.77040 | -83.38227 | 19928 ft | 351 kts | 315° |
| 2026-05-05 00:21 | 32.78871 | -83.40137 | 19494 ft | 349 kts | 315° |
| 2026-05-05 00:21 | 32.80686 | -83.42031 | 19064 ft | 347 kts | 315° |
| 2026-05-05 00:22 | 32.82502 | -83.43927 | 18639 ft | 346 kts | 315° |
| 2026-05-05 00:22 | 32.84309 | -83.45815 | 18160 ft | 346 kts | 315° |
| 2026-05-05 00:22 | 32.86111 | -83.47698 | 17698 ft | 344 kts | 315° |
| 2026-05-05 00:22 | 32.87904 | -83.49574 | 17249 ft | 342 kts | 316° |
| 2026-05-05 00:23 | 32.89687 | -83.51439 | 16806 ft | 340 kts | 316° |
| 2026-05-05 00:23 | 32.91460 | -83.53295 | 16382 ft | 339 kts | 316° |
| 2026-05-05 00:23 | 32.93227 | -83.55146 | 15948 ft | 337 kts | 316° |
| 2026-05-05 00:23 | 32.94984 | -83.56986 | 15498 ft | 336 kts | 316° |
| 2026-05-05 00:24 | 32.96750 | -83.58836 | 14961 ft | 339 kts | 316° |
| 2026-05-05 00:24 | 32.98518 | -83.60688 | 14526 ft | 338 kts | 317° |
| 2026-05-05 00:24 | 33.00280 | -83.62533 | 14104 ft | 337 kts | 317° |
| 2026-05-05 00:24 | 33.02037 | -83.64375 | 13657 ft | 336 kts | 317° |
| 2026-05-05 00:25 | 33.03790 | -83.66213 | 13186 ft | 334 kts | 317° |
| 2026-05-05 00:25 | 33.05530 | -83.68039 | 12764 ft | 333 kts | 317° |
| 2026-05-05 00:25 | 33.07260 | -83.69856 | 12339 ft | 331 kts | 317° |
| 2026-05-05 00:25 | 33.08981 | -83.71665 | 11911 ft | 329 kts | 317° |
| 2026-05-05 00:26 | 33.10690 | -83.73462 | 11567 ft | 325 kts | 317° |
| 2026-05-05 00:26 | 33.12359 | -83.75216 | 11436 ft | 314 kts | 317° |
| 2026-05-05 00:26 | 33.13974 | -83.76914 | 11277 ft | 305 kts | 316° |
| 2026-05-05 00:26 | 33.15561 | -83.78589 | 10917 ft | 304 kts | 316° |
| 2026-05-05 00:27 | 33.17141 | -83.80259 | 10581 ft | 303 kts | 316° |
| 2026-05-05 00:27 | 33.18710 | -83.81918 | 10307 ft | 299 kts | 316° |
| 2026-05-05 00:27 | 33.20210 | -83.83589 | 10097 ft | 292 kts | 313° |
| 2026-05-05 00:27 | 33.21631 | -83.85290 | 9823 ft | 289 kts | 312° |
| 2026-05-05 00:28 | 33.23040 | -83.86995 | 9473 ft | 288 kts | 313° |
| 2026-05-05 00:28 | 33.24443 | -83.88686 | 9137 ft | 286 kts | 313° |
| 2026-05-05 00:28 | 33.25848 | -83.90369 | 8802 ft | 285 kts | 313° |
| 2026-05-05 00:28 | 33.27248 | -83.92041 | 8462 ft | 284 kts | 313° |
| 2026-05-05 00:29 | 33.28627 | -83.93686 | 8150 ft | 283 kts | 313° |
| 2026-05-05 00:29 | 33.30023 | -83.95352 | 7996 ft | 275 kts | 313° |
| 2026-05-05 00:29 | 33.31357 | -83.96947 | 7921 ft | 267 kts | 313° |
| 2026-05-05 00:29 | 33.32649 | -83.98493 | 7873 ft | 266 kts | 312° |
| 2026-05-05 00:30 | 33.33983 | -84.00092 | 7837 ft | 270 kts | 312° |
| 2026-05-05 00:30 | 33.35310 | -84.01670 | 7784 ft | 275 kts | 315° |
| 2026-05-05 00:30 | 33.36996 | -84.02803 | 7693 ft | 280 kts | 346° |
| 2026-05-05 00:30 | 33.38900 | -84.03003 | 7689 ft | 279 kts | 358° |
| 2026-05-05 00:31 | 33.40215 | -84.03014 | 7645 ft | 280 kts | 358° |
| 2026-05-05 00:31 | 33.42161 | -84.03027 | 7581 ft | 280 kts | 358° |
| 2026-05-05 00:31 | 33.44116 | -84.03051 | 7508 ft | 281 kts | 358° |
| 2026-05-05 00:31 | 33.46067 | -84.03084 | 7446 ft | 281 kts | 358° |
| 2026-05-05 00:32 | 33.48018 | -84.02946 | 7390 ft | 281 kts | 7° |
| 2026-05-05 00:32 | 33.50574 | -84.02439 | 7321 ft | 281 kts | 9° |
| 2026-05-05 00:32 | 33.51880 | -84.02173 | 7282 ft | 281 kts | 8° |
| 2026-05-05 00:32 | 33.53813 | -84.01801 | 7226 ft | 281 kts | 8° |
| 2026-05-05 00:33 | 33.55746 | -84.01445 | 7168 ft | 280 kts | 7° |
| 2026-05-05 00:33 | 33.57635 | -84.01104 | 7100 ft | 267 kts | 7° |
| 2026-05-05 00:33 | 33.59419 | -84.00799 | 6996 ft | 251 kts | 2° |
| 2026-05-05 00:33 | 33.61040 | -84.01144 | 6979 ft | 227 kts | 328° |
| 2026-05-05 00:34 | 33.62208 | -84.02306 | 6906 ft | 219 kts | 304° |
| 2026-05-05 00:34 | 33.62927 | -84.03924 | 6495 ft | 222 kts | 281° |
| 2026-05-05 00:34 | 33.63163 | -84.05765 | 6132 ft | 234 kts | 271° |
| 2026-05-05 00:34 | 33.63235 | -84.07745 | 6044 ft | 240 kts | 268° |
| 2026-05-05 00:35 | 33.63247 | -84.09740 | 6018 ft | 243 kts | 267° |
| 2026-05-05 00:35 | 33.63240 | -84.11791 | 5767 ft | 249 kts | 267° |
| 2026-05-05 00:35 | 33.63231 | -84.13860 | 5465 ft | 248 kts | 267° |
| 2026-05-05 00:35 | 33.63225 | -84.15908 | 5145 ft | 244 kts | 267° |
| 2026-05-05 00:36 | 33.63220 | -84.17925 | 4843 ft | 240 kts | 266° |
| 2026-05-05 00:36 | 33.63215 | -84.19899 | 4540 ft | 233 kts | 266° |
| 2026-05-05 00:36 | 33.63211 | -84.21815 | 4232 ft | 226 kts | 266° |
| 2026-05-05 00:36 | 33.63207 | -84.23666 | 3925 ft | 219 kts | 266° |
| 2026-05-05 00:37 | 33.63203 | -84.25470 | 3644 ft | 212 kts | 266° |
| 2026-05-05 00:37 | 33.63200 | -84.27195 | 3376 ft | 203 kts | 266° |
| 2026-05-05 00:37 | 33.63197 | -84.28853 | 3109 ft | 194 kts | 266° |
| 2026-05-05 00:37 | 33.63195 | -84.30439 | 2866 ft | 185 kts | 266° |
| 2026-05-05 00:38 | 33.63193 | -84.31918 | 2663 ft | 168 kts | 266° |
| 2026-05-05 00:38 | 33.63192 | -84.33261 | 2429 ft | 153 kts | 265° |
| 2026-05-05 00:38 | 33.63189 | -84.34486 | 2247 ft | 146 kts | 264° |
| 2026-05-05 00:38 | 33.63188 | -84.35705 | 2045 ft | 145 kts | 264° |
| 2026-05-05 00:39 | 33.63182 | -84.36901 | 1833 ft | 142 kts | 265° |
| 2026-05-05 00:39 | 33.63182 | -84.38077 | 1660 ft | 143 kts | 267° |
| 2026-05-05 00:39 | 33.63179 | -84.39289 | 1485 ft | 147 kts | 267° |
| 2026-05-05 00:39 | 33.63180 | -84.40520 | 1283 ft | 149 kts | 267° |
| 2026-05-05 00:40 | 33.63183 | -84.41761 | 1063 ft | 147 kts | 267° |
| 2026-05-05 00:40 | 33.63178 | -84.42911 | 1006 ft | 124 kts | 270° |
| 2026-05-05 00:40 | 33.63182 | -84.43769 | 1005 ft | 81 kts | 270° |
| 2026-05-05 00:40 | 33.63182 | -84.44317 | 1003 ft | 58 kts | 271° |
| 2026-05-05 00:41 | 33.63183 | -84.44628 | 1006 ft | 14 kts | 271° |
| 2026-05-05 00:41 | 33.63185 | -84.44740 | 1006 ft | 12 kts | 282° |
| 2026-05-05 00:41 | 33.63244 | -84.44780 | 1006 ft | 10 kts | 359° |
| 2026-05-05 00:41 | 33.63312 | -84.44781 | 1005 ft | 10 kts | 0° |
| 2026-05-05 00:42 | 33.63378 | -84.44780 | 1005 ft | 9 kts | 359° |
| 2026-05-05 00:42 | 33.63443 | -84.44780 | 1005 ft | 9 kts | 360° |
| 2026-05-05 00:42 | 33.63506 | -84.44781 | 1005 ft | 9 kts | 360° |
| 2026-05-05 00:42 | 33.63567 | -84.44780 | 1005 ft | 9 kts | 1° |
| 2026-05-05 00:43 | 33.63624 | -84.44765 | 1005 ft | 8 kts | 28° |
| 2026-05-05 00:43 | 33.63661 | -84.44714 | 1005 ft | 8 kts | 72° |
| 2026-05-05 00:43 | 33.63663 | -84.44642 | 1005 ft | 9 kts | 90° |
| 2026-05-05 00:43 | 33.63664 | -84.44564 | 1005 ft | 10 kts | 90° |
| 2026-05-05 00:44 | 33.63664 | -84.44481 | 1005 ft | 10 kts | 89° |
| 2026-05-05 00:44 | 33.63663 | -84.44392 | 1005 ft | 11 kts | 91° |
| 2026-05-05 00:44 | 33.63663 | -84.44301 | 1006 ft | 11 kts | 90° |
| 2026-05-05 00:44 | 33.63663 | -84.44211 | 1006 ft | 11 kts | 90° |
| 2026-05-05 00:45 | 33.63685 | -84.44132 | 1006 ft | 10 kts | 44° |
| 2026-05-05 00:45 | 33.63753 | -84.44115 | 1005 ft | 10 kts | 358° |
| 2026-05-05 00:45 | 33.63821 | -84.44116 | 1005 ft | 10 kts | 359° |
| 2026-05-05 00:45 | 33.63887 | -84.44115 | 1005 ft | 9 kts | 0° |
| 2026-05-05 00:46 | 33.63953 | -84.44115 | 1005 ft | 9 kts | 359° |
| 2026-05-05 00:46 | 33.64015 | -84.44115 | 1005 ft | 9 kts | 360° |
| 2026-05-05 00:46 | 33.64077 | -84.44116 | 1005 ft | 9 kts | 360° |
| 2026-05-05 00:46 | 33.64138 | -84.44116 | 1005 ft | 8 kts | 0° |
| 2026-05-05 00:47 | 33.64196 | -84.44116 | 1005 ft | 8 kts | 360° |
| 2026-05-05 00:47 | 33.64244 | -84.44116 | 1005 ft | 5 kts | 0° |
| 2026-05-05 00:47 | 33.64259 | -84.44129 | 1005 ft | 2 kts | 301° |
| 2026-05-05 00:47 | 33.64261 | -84.44148 | 1005 ft | 2 kts | 271° |
| 2026-05-05 00:48 | 33.64262 | -84.44167 | 1005 ft | 2 kts | 271° |
| 2026-05-05 00:48 | 33.64262 | -84.44181 | 1005 ft | 1 kts | 271° |
| 2026-05-05 00:48 | 33.64262 | -84.44188 | 1005 ft | 1 kts | 270° |
| 2026-05-05 00:48 | 33.64262 | -84.44192 | 1005 ft | 0 kts | 270° |